This is the latest recevied weather packets stored in our database for station/object K3FAZ. If no packets are shown the sender has not sent any weather packets the latest 10 day(s).
| Time | Temp. | Humidity | Pressure | Rain* | Wind** | Luminosity | Snow |
|---|---|---|---|---|---|---|---|
| 1777251062 | 10.56° C | 79% | 1023.8 hPa | 0 mm | - | 0 W/m² | - |
| 1777250759 | 10.56° C | 77% | 1023.7 hPa | 0 mm | - | 0 W/m² | - |
| 1777250456 | 10.56° C | 77% | 1023.6 hPa | 0 mm | - | 0 W/m² | - |
| 1777250156 | 10.56° C | 78% | 1023.4 hPa | 0 mm | - | 0 W/m² | - |
| 1777249853 | 10.56° C | 80% | 1023.6 hPa | 0 mm | - | 0 W/m² | - |
| 1777249549 | 11.11° C | 78% | 1023.3 hPa | 0 mm | - | 0 W/m² | - |
| 1777249246 | 11.67° C | 75% | 1023.2 hPa | 0 mm | - | 1 W/m² | - |
| 1777248943 | 12.22° C | 71% | 1023.1 hPa | 0 mm | - | 1 W/m² | - |
| 1777248639 | 12.22° C | 71% | 1023 hPa | 0 mm | - | 3 W/m² | - |
| 1777248336 | 12.78° C | 69% | 1023.1 hPa | 0 mm | - | 4 W/m² | - |
| 1777248033 | 12.78° C | 69% | 1023.1 hPa | 0 mm | - | 7 W/m² | - |
| 1777247732 | 12.78° C | 69% | 1023 hPa | 0 mm | - | 10 W/m² | - |
| 1777247429 | 12.78° C | 68% | 1023 hPa | 0 mm | - | 14 W/m² | - |
| 1777247126 | 13.33° C | 67% | 1023.2 hPa | 0 mm | - | 16 W/m² | - |
| 1777246824 | 13.33° C | 67% | 1023 hPa | 0 mm | - | 19 W/m² | - |
| 1777246519 | 13.89° C | 65% | 1022.8 hPa | 0 mm | - | 22 W/m² | - |
| 1777246216 | 13.89° C | 63% | 1022.7 hPa | 0 mm | - | 25 W/m² | - |
| 1777245914 | 13.89° C | 63% | 1022.6 hPa | 0 mm | - | 27 W/m² | - |
| 1777245612 | 13.89° C | 65% | 1022.7 hPa | 0 mm | - | 29 W/m² | - |
| 1777245309 | 13.33° C | 66% | 1022.7 hPa | 0 mm | - | 32 W/m² | - |
| 1777245004 | 13.89° C | 66% | 1022.7 hPa | 0 mm | - | 35 W/m² | - |
| 1777244700 | 13.89° C | 65% | 1022.6 hPa | 0 mm | - | 37 W/m² | - |
| 1777244396 | 13.89° C | 64% | 1022.6 hPa | 0 mm | - | 40 W/m² | - |
| 1777244093 | 13.89° C | 63% | 1022.5 hPa | 0 mm | - | 41 W/m² | - |
| 1777243791 | 14.44° C | 63% | 1022.7 hPa | 0 mm | - | 41 W/m² | - |
* Rain latest hour (hover to see other rain measurements)
** Current wind speed in m/s (hover to see current wind gust speed)